createdAt,value
2022-11-06T00:00:44.352Z,99742.49
2022-11-06T00:01:44.449Z,99740.77
2022-11-06T00:02:45.266Z,99741.48
2022-11-06T00:03:44.396Z,99744.78
2022-11-06T00:04:44.475Z,99734.52
2022-11-06T00:05:44.556Z,99739.48
2022-11-06T00:06:44.454Z,99734.41
2022-11-06T00:07:48.071Z,99739.82
2022-11-06T00:08:44.447Z,99741.49
2022-11-06T00:09:44.474Z,99740.7
2022-11-06T00:10:44.485Z,99740.94
2022-11-06T00:11:44.507Z,99740.34
2022-11-06T00:12:44.696Z,99736.56
2022-11-06T00:13:44.918Z,99735.46
2022-11-06T00:14:44.527Z,99734.62
2022-11-06T00:15:44.556Z,99735.35
2022-11-06T00:16:45.235Z,99738.62
2022-11-06T00:17:44.752Z,99733.12
2022-11-06T00:18:44.748Z,99728.64
2022-11-06T00:19:44.611Z,99730.56
2022-11-06T00:20:44.634Z,99736.36
2022-11-06T00:21:44.875Z,99728.41
2022-11-06T00:22:44.631Z,99729.17
2022-11-06T00:23:45.361Z,99734.12
2022-11-06T00:24:44.652Z,99729.49
2022-11-06T00:25:44.709Z,99730.66
2022-11-06T00:26:47.527Z,99736.5
2022-11-06T00:27:47.672Z,99734.8
2022-11-06T00:28:48.083Z,99724.84
2022-11-06T00:29:47.696Z,99725.34
2022-11-06T00:30:47.777Z,99725.66
2022-11-06T00:31:49.358Z,99723
2022-11-06T00:32:47.740Z,99720.34
2022-11-06T00:33:48.133Z,99725.38
2022-11-06T00:34:48.127Z,99718.62
2022-11-06T00:35:47.796Z,99716.55
2022-11-06T00:36:47.777Z,99719.03
2022-11-06T00:37:47.820Z,99718.76
2022-11-06T00:38:47.947Z,99719.61
2022-11-06T00:39:47.810Z,99712.08
2022-11-06T00:40:47.851Z,99710.68
2022-11-06T00:41:47.828Z,99713.69
2022-11-06T00:42:47.844Z,99712.86
2022-11-06T00:43:48.716Z,99705.84
2022-11-06T00:44:47.872Z,99706.76
2022-11-06T00:45:47.927Z,99707.14
2022-11-06T00:46:47.931Z,99704.47
2022-11-06T00:47:47.925Z,99706.36
2022-11-06T00:48:48.118Z,99704.48
2022-11-06T00:49:47.946Z,99700.08
2022-11-06T00:50:47.948Z,99702.33
2022-11-06T00:51:48.208Z,99706.38
2022-11-06T00:52:47.979Z,99704.8
2022-11-06T00:53:48.168Z,99699.67
2022-11-06T00:54:47.989Z,99703
2022-11-06T00:55:48.219Z,99698.47
2022-11-06T00:56:48.085Z,99694.72
2022-11-06T00:57:48.043Z,99701.42
2022-11-06T00:58:48.492Z,99700.61
2022-11-06T00:59:48.050Z,99697.31
2022-11-06T01:00:48.091Z,99696.67
2022-11-06T01:01:48.736Z,99692.36
2022-11-06T01:02:48.738Z,99691.7
2022-11-06T01:04:50.534Z,99692.83
2022-11-06T01:05:50.546Z,99689.61
2022-11-06T01:06:52.171Z,99687.39
2022-11-06T01:07:50.612Z,99684.86
2022-11-06T01:08:51.092Z,99684.77
2022-11-06T01:09:50.625Z,99688.52
2022-11-06T01:10:50.603Z,99691.47
2022-11-06T01:12:12.197Z,99688.47
2022-11-06T01:12:53.683Z,99685.54
2022-11-06T01:13:54.984Z,99684.5
2022-11-06T01:14:53.713Z,99681.61
2022-11-06T01:15:53.727Z,99686.05
2022-11-06T01:16:53.788Z,99686.52
2022-11-06T01:17:53.751Z,99682.52
2022-11-06T01:18:54.481Z,99686.03
2022-11-06T01:19:53.765Z,99679.22
2022-11-06T01:20:53.784Z,99685.52
2022-11-06T01:21:53.862Z,99686.33
2022-11-06T01:22:53.810Z,99687.49
2022-11-06T01:23:54.871Z,99690.34
2022-11-06T01:24:53.867Z,99687.56
2022-11-06T01:27:58.264Z,99681.7
2022-11-06T01:28:58.336Z,99675.27
2022-11-06T01:29:58.464Z,99676.11
2022-11-06T01:32:02.408Z,99674.73
2022-11-06T01:33:01.940Z,99673.33
2022-11-06T01:34:02.568Z,99677.2
2022-11-06T01:35:01.974Z,99675.23
2022-11-06T01:36:02.015Z,99670.45
2022-11-06T01:37:02.183Z,99672.05
2022-11-06T01:38:02.030Z,99673.3
2022-11-06T01:39:03.648Z,99676.67
2022-11-06T01:40:02.056Z,99681.71
2022-11-06T01:41:02.047Z,99672.23
2022-11-06T01:42:02.056Z,99671.3
2022-11-06T01:43:02.104Z,99672.42
2022-11-06T01:44:06.136Z,99665.45
2022-11-06T01:46:07.582Z,99669.33
2022-11-06T01:48:08.425Z,99663.1
2022-11-06T01:49:11.976Z,99665.65
2022-11-06T01:50:09.757Z,99661.16
2022-11-06T01:51:08.404Z,99669.67
2022-11-06T01:52:09.958Z,99658.15
2022-11-06T01:53:08.746Z,99660.86
2022-11-06T01:54:08.541Z,99659.56
2022-11-06T01:55:12.674Z,99655.45
2022-11-06T01:56:10.653Z,99660.59
2022-11-06T01:57:10.200Z,99661.08
2022-11-06T01:58:10.848Z,99655.46
2022-11-06T01:59:11.026Z,99654.11
2022-11-06T02:00:09.610Z,99651.76
2022-11-06T02:01:09.184Z,99659.41
2022-11-06T02:02:09.441Z,99656.38
2022-11-06T02:03:09.678Z,99651.89
2022-11-06T02:05:13.383Z,99651.41
2022-11-06T02:06:13.366Z,99655.98
2022-11-06T02:07:13.853Z,99660.13
2022-11-06T02:09:18.504Z,99651.91
2022-11-06T02:10:17.639Z,99650.3
2022-11-06T02:11:17.649Z,99650.28
2022-11-06T02:12:20.643Z,99648.34
2022-11-06T02:17:34.904Z,99647.48
2022-11-06T02:24:49.499Z,99645.94
2022-11-06T02:25:52.360Z,99643.56
2022-11-06T02:27:53.966Z,99647.62
2022-11-06T02:28:57.546Z,99645.59
2022-11-06T02:31:02.923Z,99643.12
2022-11-06T02:32:00.824Z,99644.91
2022-11-06T02:34:06.201Z,99646.59
2022-11-06T02:35:05.141Z,99647.23
2022-11-06T02:36:05.915Z,99646.77
2022-11-06T02:37:06.466Z,99644.98
2022-11-06T02:38:05.976Z,99648.86
2022-11-06T02:39:04.642Z,99645.48
2022-11-06T02:40:06.073Z,99645.44
2022-11-06T02:41:05.364Z,99644.47
2022-11-06T02:42:03.671Z,99639.86
2022-11-06T02:43:05.176Z,99644.49
2022-11-06T02:44:06.328Z,99639.81
2022-11-06T02:45:04.174Z,99645.09
2022-11-06T02:46:06.332Z,99638.5
2022-11-06T02:47:05.739Z,99641.86
2022-11-06T02:48:04.203Z,99638.91
2022-11-06T02:49:06.566Z,99642.84
2022-11-06T02:50:11.982Z,99642.46
2022-11-06T02:51:05.177Z,99644.5
2022-11-06T02:52:08.463Z,99647.9
2022-11-06T02:53:05.993Z,99649.67
2022-11-06T02:54:05.994Z,99641.05
2022-11-06T02:56:09.063Z,99638.95
2022-11-06T02:57:08.392Z,99637.45
2022-11-06T02:58:08.888Z,99641.27
2022-11-06T02:59:09.702Z,99635.91
2022-11-06T03:00:07.804Z,99631.72
2022-11-06T03:02:10.361Z,99635.66
2022-11-06T03:06:19.156Z,99642.11
2022-11-06T03:08:22.326Z,99633.95
2022-11-06T03:09:20.411Z,99629.77
2022-11-06T03:10:18.975Z,99634.45
2022-11-06T03:11:27.416Z,99633.59
2022-11-06T03:12:27.947Z,99633.8
2022-11-06T03:13:27.604Z,99631.36
2022-11-06T03:14:29.053Z,99633.05
2022-11-06T03:17:41.312Z,99633.55
2022-11-06T03:20:43.209Z,99629.92
2022-11-06T03:21:48.742Z,99631.7
2022-11-06T03:23:50.304Z,99628.69
2022-11-06T03:25:51.842Z,99621.6
2022-11-06T03:26:50.520Z,99625.28
2022-11-06T03:28:54.752Z,99625.47
2022-11-06T03:30:00.299Z,99621.55
2022-11-06T03:30:58.666Z,99620.38
2022-11-06T03:39:14.668Z,99624.03
2022-11-06T03:40:14.277Z,99617.84
2022-11-06T03:41:14.010Z,99613.98
2022-11-06T03:42:12.990Z,99621.38
2022-11-06T03:43:13.159Z,99620.78
2022-11-06T03:44:13.632Z,99618.57
2022-11-06T03:45:14.085Z,99617.88
2022-11-06T03:46:13.076Z,99620.03
2022-11-06T03:48:16.767Z,99617.55
2022-11-06T03:49:16.939Z,99617.7
2022-11-06T03:50:16.196Z,99618.06
2022-11-06T03:51:17.731Z,99618.44
2022-11-06T03:52:24.197Z,99611.06
2022-11-06T03:53:23.172Z,99615.27
2022-11-06T03:54:25.240Z,99614.3
2022-11-06T03:55:25.744Z,99613.16
2022-11-06T03:56:26.045Z,99611.09
2022-11-06T03:57:25.870Z,99609.23
2022-11-06T03:58:24.463Z,99615.48
2022-11-06T03:59:25.771Z,99611.6
2022-11-06T04:00:23.100Z,99615.8
2022-11-06T04:01:27.215Z,99610.15
2022-11-06T04:02:26.642Z,99609.06
2022-11-06T04:03:28.430Z,99607.86
2022-11-06T04:04:27.688Z,99613.81
2022-11-06T04:05:25.152Z,99611.52
2022-11-06T04:06:30.017Z,99610.83
2022-11-06T04:07:31.438Z,99609.44
2022-11-06T04:08:29.314Z,99611.45
2022-11-06T04:09:31.319Z,99610.87
2022-11-06T04:10:29.324Z,99608.14
2022-11-06T04:11:30.974Z,99607.09
2022-11-06T04:12:29.973Z,99600.34
2022-11-06T04:13:29.676Z,99604.92
2022-11-06T04:14:29.447Z,99597.83
2022-11-06T04:15:31.126Z,99598.97
2022-11-06T04:16:33.545Z,99598.27
2022-11-06T04:17:30.162Z,99603
2022-11-06T04:18:30.608Z,99603.12
2022-11-06T04:19:30.412Z,99605.74
2022-11-06T04:20:37.106Z,99604.16
2022-11-06T04:27:05.174Z,99601.28
2022-11-06T04:30:06.447Z,99602.79
2022-11-06T04:35:15.251Z,99597.14
2022-11-06T04:39:24.930Z,99597.47
2022-11-06T04:40:25.076Z,99597.28
2022-11-06T04:41:27.071Z,99598.28
2022-11-06T04:44:35.815Z,99591.45
2022-11-06T04:45:36.061Z,99594.7
2022-11-06T04:46:36.339Z,99591.1
2022-11-06T04:47:34.519Z,99593.15
2022-11-06T04:48:33.594Z,99593.97
2022-11-06T04:49:35.262Z,99590.19
2022-11-06T04:50:35.346Z,99591.45
2022-11-06T04:51:35.170Z,99586.23
2022-11-06T04:52:33.748Z,99592.16
2022-11-06T04:53:33.673Z,99587.38
2022-11-06T04:54:33.719Z,99588.56
2022-11-06T04:55:37.532Z,99595.77
2022-11-06T04:56:36.586Z,99590.53
2022-11-06T04:57:35.740Z,99587.55
2022-11-06T04:58:35.853Z,99591.72
2022-11-06T04:59:36.341Z,99585.92
2022-11-06T05:00:36.197Z,99588.3
2022-11-06T05:01:35.737Z,99590.08
2022-11-06T05:02:35.612Z,99593.12
2022-11-06T05:03:35.669Z,99589.34
2022-11-06T05:04:35.671Z,99592.25
2022-11-06T05:05:35.668Z,99590.28
2022-11-06T05:06:35.662Z,99593.77
2022-11-06T05:07:35.855Z,99598.12
2022-11-06T05:08:35.715Z,99593.12
2022-11-06T05:09:35.875Z,99593.59
2022-11-06T05:10:35.745Z,99591.38
2022-11-06T05:11:35.800Z,99596.34
2022-11-06T05:12:35.805Z,99593.08
2022-11-06T05:13:35.772Z,99593.12
2022-11-06T05:14:35.801Z,99589.54
2022-11-06T05:15:35.822Z,99588.96
2022-11-06T05:16:36.226Z,99588.55
2022-11-06T05:17:36.783Z,99585.55
2022-11-06T05:18:36.067Z,99591.01
2022-11-06T05:19:35.949Z,99586.81
2022-11-06T05:20:36.042Z,99588.96
2022-11-06T05:21:36.055Z,99586.64
2022-11-06T05:22:40.054Z,99588.41
2022-11-06T05:23:36.877Z,99591.94
2022-11-06T05:24:36.744Z,99588.12
2022-11-06T05:25:37.503Z,99590.72
2022-11-06T05:26:36.734Z,99588.48
2022-11-06T05:27:36.747Z,99591.59
2022-11-06T05:28:36.839Z,99595.12
2022-11-06T05:29:36.807Z,99590.78
2022-11-06T05:30:36.833Z,99596.16
2022-11-06T05:31:36.855Z,99596.03
2022-11-06T05:32:36.863Z,99592.62
2022-11-06T05:33:36.905Z,99594.41
2022-11-06T05:34:36.851Z,99595.77
2022-11-06T05:35:37.000Z,99595.5
2022-11-06T05:36:36.899Z,99595.02
2022-11-06T05:37:36.949Z,99596.36
2022-11-06T05:38:37.344Z,99597.75
2022-11-06T05:39:41.554Z,99599.58
2022-11-06T05:40:38.923Z,99601.11
2022-11-06T05:41:38.784Z,99602.4
2022-11-06T05:42:42.127Z,99599.77
2022-11-06T05:43:38.904Z,99601.02
2022-11-06T05:44:38.953Z,99599.02
2022-11-06T05:45:38.828Z,99602.5
2022-11-06T05:46:54.099Z,99601.68
2022-11-06T05:47:41.246Z,99603.14
2022-11-06T05:48:40.930Z,99602.41
2022-11-06T05:49:40.916Z,99603.19
2022-11-06T05:50:40.916Z,99604.38
2022-11-06T05:51:40.909Z,99597.56
2022-11-06T05:52:40.949Z,99600.03
2022-11-06T05:53:40.960Z,99605.38
2022-11-06T05:54:40.997Z,99601.28
2022-11-06T05:55:41.027Z,99605.62
2022-11-06T05:56:41.242Z,99601.93
2022-11-06T05:57:41.314Z,99602.62
2022-11-06T05:58:41.101Z,99602.89
2022-11-06T05:59:41.072Z,99602.77
2022-11-06T06:00:41.242Z,99597.36
2022-11-06T06:01:41.286Z,99603.05
2022-11-06T06:02:41.279Z,99602.23
2022-11-06T06:03:41.187Z,99603.41
2022-11-06T06:04:41.372Z,99609.98
2022-11-06T06:05:41.203Z,99599.8
2022-11-06T06:06:41.219Z,99597.61
2022-11-06T06:07:41.235Z,99596.23
2022-11-06T06:08:41.233Z,99600.64
2022-11-06T06:09:41.714Z,99600.03
2022-11-06T06:10:44.785Z,99598.88
2022-11-06T06:11:41.503Z,99600.88
2022-11-06T06:12:41.512Z,99607.14
2022-11-06T06:13:41.692Z,99603.54
2022-11-06T06:14:41.630Z,99600.59
2022-11-06T06:15:42.353Z,99603.09
2022-11-06T06:16:41.530Z,99605.88
2022-11-06T06:17:41.768Z,99606.24
2022-11-06T06:18:41.542Z,99603.92
2022-11-06T06:19:41.597Z,99603.61
2022-11-06T06:20:41.618Z,99601.02
2022-11-06T06:21:41.795Z,99605.01
2022-11-06T06:22:41.841Z,99611.17
2022-11-06T06:23:46.234Z,99604.83
2022-11-06T06:24:43.039Z,99600
2022-11-06T06:25:42.930Z,99606.16
2022-11-06T06:26:42.968Z,99605.98
2022-11-06T06:27:42.940Z,99603.29
2022-11-06T06:28:42.959Z,99601.88
2022-11-06T06:29:43.008Z,99603.97
2022-11-06T06:30:42.959Z,99592.27
2022-11-06T06:31:43.020Z,99602.76
2022-11-06T06:32:43.025Z,99605.35
2022-11-06T06:33:43.073Z,99607.64
2022-11-06T06:34:43.049Z,99607.77
2022-11-06T06:35:43.110Z,99611.57
2022-11-06T06:36:43.162Z,99607.06
2022-11-06T06:37:43.739Z,99602.17
2022-11-06T06:38:43.128Z,99601.34
2022-11-06T06:39:43.264Z,99603.62
2022-11-06T06:40:43.164Z,99600.02
2022-11-06T06:41:43.154Z,99601.52
2022-11-06T06:42:43.243Z,99606.95
2022-11-06T06:43:43.158Z,99606.41
2022-11-06T06:44:43.210Z,99608.39
2022-11-06T06:45:43.445Z,99599.45
2022-11-06T06:46:43.272Z,99602.5
2022-11-06T06:47:43.297Z,99604.57
2022-11-06T06:48:43.270Z,99610.34
2022-11-06T06:49:43.728Z,99606.88
2022-11-06T06:50:43.332Z,99614.06
2022-11-06T06:51:43.326Z,99614.59
2022-11-06T06:52:43.305Z,99607.91
2022-11-06T06:53:43.345Z,99606.98
2022-11-06T06:54:43.381Z,99611.16
2022-11-06T06:55:43.397Z,99612.21
2022-11-06T06:56:43.477Z,99607.91
2022-11-06T06:57:43.725Z,99608.75
2022-11-06T06:58:43.435Z,99620.02
2022-11-06T06:59:43.459Z,99616.63
2022-11-06T07:00:43.553Z,99621.34
2022-11-06T07:01:43.852Z,99612.82
2022-11-06T07:02:43.502Z,99608.38
2022-11-06T07:03:43.485Z,99607.7
2022-11-06T07:04:43.550Z,99610.06
2022-11-06T07:05:43.751Z,99611.53
2022-11-06T07:06:43.741Z,99612.06
2022-11-06T07:07:43.575Z,99614.96
2022-11-06T07:08:43.570Z,99611.45
2022-11-06T07:09:43.634Z,99611.88
2022-11-06T07:10:43.596Z,99609.78
2022-11-06T07:11:43.667Z,99609.31
2022-11-06T07:12:43.897Z,99613.66
2022-11-06T07:13:43.654Z,99607.59
2022-11-06T07:14:43.664Z,99609.2
2022-11-06T07:15:43.724Z,99604.05
2022-11-06T07:16:43.791Z,99606.52
2022-11-06T07:17:43.780Z,99603.05
2022-11-06T07:18:43.729Z,99600.34
2022-11-06T07:19:43.761Z,99597.95
2022-11-06T07:20:43.775Z,99599.27
2022-11-06T07:21:43.783Z,99597.37
2022-11-06T07:22:44.012Z,99601.03
2022-11-06T07:23:43.820Z,99604.64
2022-11-06T07:24:44.049Z,99602.34
2022-11-06T07:25:43.852Z,99606.97
2022-11-06T07:26:44.082Z,99609.71
2022-11-06T07:27:43.926Z,99610.17
2022-11-06T07:28:44.285Z,99610.89
2022-11-06T07:29:44.103Z,99608.1
2022-11-06T07:30:43.972Z,99613.82
2022-11-06T07:31:43.956Z,99612.57
2022-11-06T07:32:44.077Z,99616.04
2022-11-06T07:33:44.129Z,99612.95
2022-11-06T07:34:44.032Z,99616.02
2022-11-06T07:35:44.274Z,99615.27
2022-11-06T07:36:44.080Z,99619.75
2022-11-06T07:37:44.091Z,99619.33
2022-11-06T07:38:44.486Z,99621.02
2022-11-06T07:39:44.072Z,99620.59
2022-11-06T07:40:44.046Z,99622.94
2022-11-06T07:41:44.107Z,99618.84
2022-11-06T07:42:44.184Z,99618.05
2022-11-06T07:43:44.144Z,99618.3
2022-11-06T07:44:44.146Z,99610.83
2022-11-06T07:45:44.216Z,99613.62
2022-11-06T07:46:44.209Z,99610.97
2022-11-06T07:47:44.487Z,99613.78
2022-11-06T07:48:44.224Z,99618.41
2022-11-06T07:49:49.663Z,99618.39
2022-11-06T07:50:47.482Z,99621.85
2022-11-06T07:51:49.694Z,99617.09
2022-11-06T07:52:47.548Z,99619.99
2022-11-06T07:53:47.741Z,99622.64
2022-11-06T07:54:47.891Z,99617.97
2022-11-06T07:55:48.479Z,99616.73
2022-11-06T07:56:47.584Z,99614.38
2022-11-06T07:57:47.691Z,99615.74
2022-11-06T07:58:47.626Z,99616.43
2022-11-06T07:59:47.630Z,99615.91
2022-11-06T08:00:48.435Z,99620.49
2022-11-06T08:01:47.847Z,99622.55
2022-11-06T08:02:51.315Z,99624.1
2022-11-06T08:03:47.967Z,99624.52
2022-11-06T08:04:48.002Z,99627.33
2022-11-06T08:05:48.240Z,99626.24
2022-11-06T08:06:48.027Z,99625.31
2022-11-06T08:07:48.210Z,99627.95
2022-11-06T08:08:48.461Z,99629.12
2022-11-06T08:09:48.057Z,99630.45
2022-11-06T08:10:48.067Z,99629.84
2022-11-06T08:11:48.467Z,99628.02
2022-11-06T08:12:48.122Z,99628.38
2022-11-06T08:13:48.148Z,99628.55
2022-11-06T08:14:48.236Z,99628.79
2022-11-06T08:15:48.182Z,99628.56
2022-11-06T08:16:48.399Z,99627.56
2022-11-06T08:17:48.217Z,99626.8
2022-11-06T08:18:48.213Z,99628.77
2022-11-06T08:19:48.293Z,99627.03
2022-11-06T08:20:48.260Z,99629.52
2022-11-06T08:21:48.248Z,99632.77
2022-11-06T08:22:48.289Z,99632.48
2022-11-06T08:23:52.678Z,99636.5
2022-11-06T08:24:49.533Z,99631.37
2022-11-06T08:25:49.597Z,99633.96
2022-11-06T08:26:49.609Z,99637.91
2022-11-06T08:27:49.394Z,99634.52
2022-11-06T08:28:49.433Z,99637.33
2022-11-06T08:29:49.451Z,99641.62
2022-11-06T08:30:49.619Z,99639.14
2022-11-06T08:31:49.483Z,99638.67
2022-11-06T08:32:50.588Z,99638.62
2022-11-06T08:33:49.724Z,99636.3
2022-11-06T08:34:49.693Z,99630.69
2022-11-06T08:35:49.660Z,99629.24
2022-11-06T08:36:49.873Z,99627.95
2022-11-06T08:37:49.520Z,99629.38
2022-11-06T08:38:49.580Z,99633.34
2022-11-06T08:39:49.871Z,99634.5
2022-11-06T08:40:53.597Z,99640.79
2022-11-06T08:41:50.655Z,99643.66
2022-11-06T08:42:50.950Z,99644.27
2022-11-06T08:43:51.474Z,99645.3
2022-11-06T08:44:50.726Z,99642.09
2022-11-06T08:45:50.704Z,99646.91
2022-11-06T08:46:52.125Z,99643.55
2022-11-06T08:47:50.756Z,99642.64
2022-11-06T08:48:50.773Z,99639.36
2022-11-06T08:49:50.817Z,99641.66
2022-11-06T08:50:51.038Z,99641.05
2022-11-06T08:51:50.788Z,99638.84
2022-11-06T08:52:50.866Z,99643
2022-11-06T08:53:50.925Z,99636.08
2022-11-06T08:54:51.266Z,99636.9
2022-11-06T08:55:50.952Z,99633.99
2022-11-06T08:56:50.911Z,99629.31
2022-11-06T08:57:51.181Z,99634.44
2022-11-06T08:58:55.329Z,99629.53
2022-11-06T08:59:52.616Z,99627.28
2022-11-06T09:00:52.754Z,99627.91
2022-11-06T09:01:52.749Z,99626.34
2022-11-06T09:02:57.596Z,99622.36
2022-11-06T09:03:54.277Z,99623.81
2022-11-06T09:04:54.339Z,99626.47
2022-11-06T09:05:54.511Z,99628.02
2022-11-06T09:06:56.128Z,99624.25
2022-11-06T09:07:55.533Z,99626.08
2022-11-06T09:08:54.589Z,99619.89
2022-11-06T09:09:54.446Z,99626.59
2022-11-06T09:10:58.675Z,99625.97
2022-11-06T09:11:55.675Z,99627.72
2022-11-06T09:12:58.317Z,99625.98
2022-11-06T09:13:55.761Z,99625.72
2022-11-06T09:14:55.726Z,99624.48
2022-11-06T09:15:55.799Z,99621.97
2022-11-06T09:16:55.796Z,99624.42
2022-11-06T09:17:56.183Z,99624.34
2022-11-06T09:18:56.194Z,99621.86
2022-11-06T09:19:55.805Z,99623.15
2022-11-06T09:20:56.694Z,99621.09
2022-11-06T09:21:55.868Z,99621.89
2022-11-06T09:22:59.816Z,99611.97
2022-11-06T09:23:56.483Z,99609.48
2022-11-06T09:25:04.634Z,99612.48
2022-11-06T09:25:57.260Z,99609.35
2022-11-06T09:26:56.602Z,99611.2
2022-11-06T09:27:59.659Z,99610.19
2022-11-06T09:28:57.145Z,99609.77
2022-11-06T09:29:57.183Z,99616.36
2022-11-06T09:30:57.184Z,99613.97
2022-11-06T09:31:57.184Z,99616.3
2022-11-06T09:32:58.683Z,99619.88
2022-11-06T09:33:57.189Z,99616.52
2022-11-06T09:34:57.218Z,99615.94
2022-11-06T09:35:57.307Z,99615.92
2022-11-06T09:36:57.252Z,99615.94
2022-11-06T09:38:01.024Z,99618.23
2022-11-06T09:38:57.760Z,99620.86
2022-11-06T09:40:01.757Z,99623.08
2022-11-06T09:41:02.111Z,99616.7
2022-11-06T09:42:08.175Z,99619.39
2022-11-06T09:43:11.290Z,99620.81
2022-11-06T09:47:18.802Z,99622.69
2022-11-06T09:50:26.572Z,99627.06
2022-11-06T09:55:37.927Z,99625.62
2022-11-06T09:56:36.044Z,99613.73
2022-11-06T09:58:42.725Z,99627.39
2022-11-06T09:59:39.565Z,99631.78
2022-11-06T10:00:39.602Z,99627.31
2022-11-06T10:02:51.293Z,99627.61
2022-11-06T10:05:44.946Z,99641.33
2022-11-06T10:06:44.317Z,99636.66
2022-11-06T10:07:45.608Z,99636.96
2022-11-06T10:08:44.225Z,99635.38
2022-11-06T10:09:44.266Z,99641.4
2022-11-06T10:18:12.239Z,99652.62
2022-11-06T10:22:17.519Z,99648.76
2022-11-06T10:24:20.598Z,99647.22
2022-11-06T10:25:21.413Z,99654.97
2022-11-06T10:26:27.617Z,99652.18
2022-11-06T10:36:51.907Z,99663.61
2022-11-06T10:38:50.090Z,99664.38
2022-11-06T10:39:49.796Z,99659.69
2022-11-06T10:40:49.689Z,99663.91
2022-11-06T10:41:52.472Z,99662.94
2022-11-06T10:43:56.895Z,99663.23
2022-11-06T10:47:03.447Z,99662.67
2022-11-06T10:48:09.697Z,99660.19
2022-11-06T10:49:02.853Z,99659.59
2022-11-06T10:50:03.087Z,99658.27
2022-11-06T10:53:15.092Z,99656.41
2022-11-06T10:56:25.498Z,99653.81
2022-11-06T10:58:21.274Z,99657.14
2022-11-06T10:59:19.615Z,99656.59
2022-11-06T11:00:19.113Z,99653.51
2022-11-06T11:01:19.148Z,99655.19
2022-11-06T11:02:30.230Z,99651.36
2022-11-06T11:03:26.074Z,99649.98
2022-11-06T11:04:22.740Z,99649.86
2022-11-06T11:05:24.331Z,99651.34
2022-11-06T11:06:23.402Z,99653.54
2022-11-06T11:07:23.553Z,99652.99
2022-11-06T11:08:36.622Z,99652.14
2022-11-06T11:09:30.012Z,99653.59
2022-11-06T11:10:32.589Z,99650.88
2022-11-06T11:11:29.271Z,99646.88
2022-11-06T11:12:30.841Z,99649.41
2022-11-06T11:13:29.724Z,99650.88
2022-11-06T11:14:30.716Z,99647.25
2022-11-06T11:15:37.838Z,99651.02
2022-11-06T11:16:34.558Z,99647.77
2022-11-06T11:17:33.742Z,99650.9
2022-11-06T11:18:31.249Z,99644.57
2022-11-06T11:19:37.960Z,99645.14
2022-11-06T11:20:36.134Z,99650.36
2022-11-06T11:21:34.621Z,99653.03
2022-11-06T11:22:34.839Z,99656.78
2022-11-06T11:23:34.783Z,99657.27
2022-11-06T11:24:34.690Z,99652.98
2022-11-06T11:25:35.015Z,99653.2
2022-11-06T11:26:39.760Z,99650.8
2022-11-06T11:27:37.945Z,99651.38
2022-11-06T11:28:37.004Z,99645.51
2022-11-06T11:29:44.276Z,99641.69
2022-11-06T11:30:41.179Z,99646.41
2022-11-06T11:31:44.379Z,99648.73
2022-11-06T11:32:41.320Z,99641.14
2022-11-06T11:33:53.397Z,99645.67
2022-11-06T11:34:52.642Z,99648.64
2022-11-06T11:35:49.221Z,99650.02
2022-11-06T11:36:51.177Z,99647.61
2022-11-06T11:37:47.836Z,99643.2
2022-11-06T11:38:48.040Z,99649.13
2022-11-06T11:39:48.042Z,99649.08
2022-11-06T11:40:48.455Z,99647.09
2022-11-06T11:41:47.936Z,99643.89
2022-11-06T11:42:47.905Z,99650.48
2022-11-06T11:46:02.329Z,99653.07
2022-11-06T11:46:54.687Z,99646.33
2022-11-06T11:48:58.554Z,99644.7
2022-11-06T11:49:58.549Z,99644.62
2022-11-06T11:51:10.022Z,99642.55
2022-11-06T11:52:02.919Z,99641.3
2022-11-06T11:53:08.824Z,99641.53
2022-11-06T11:55:04.557Z,99642.48
2022-11-06T11:56:06.608Z,99640.73
2022-11-06T11:57:08.129Z,99645.38
2022-11-06T11:58:04.340Z,99644.25
2022-11-06T11:59:04.388Z,99641.89
2022-11-06T12:00:05.372Z,99642.05
2022-11-06T12:01:05.188Z,99644.58
2022-11-06T12:03:11.830Z,99646.66
2022-11-06T12:06:17.803Z,99645.57
2022-11-06T12:07:25.573Z,99646.02
2022-11-06T12:08:25.294Z,99648.31
2022-11-06T12:09:22.528Z,99651.05
2022-11-06T12:11:28.671Z,99653.48
2022-11-06T12:12:32.917Z,99654.59
2022-11-06T12:13:29.754Z,99650.72
2022-11-06T12:14:33.827Z,99651.02
2022-11-06T12:16:30.882Z,99654
2022-11-06T12:17:31.101Z,99653.59
2022-11-06T12:18:35.529Z,99653.67
2022-11-06T12:19:33.359Z,99651.72
2022-11-06T12:21:39.191Z,99659.12
2022-11-06T12:22:40.550Z,99656.85
2022-11-06T12:24:42.993Z,99655.72
2022-11-06T12:25:41.583Z,99655.88
2022-11-06T12:26:51.831Z,99658.74
2022-11-06T12:27:47.745Z,99656.5
2022-11-06T12:28:47.762Z,99655.64
2022-11-06T12:29:47.598Z,99656
2022-11-06T12:30:46.192Z,99656.3
2022-11-06T12:33:03.556Z,99659
2022-11-06T12:34:10.868Z,99660.89
2022-11-06T12:36:03.797Z,99662.81
2022-11-06T12:41:15.074Z,99663.34
2022-11-06T12:42:12.091Z,99661.67
2022-11-06T12:43:20.728Z,99661.23
2022-11-06T12:44:13.153Z,99662.16
2022-11-06T12:45:12.756Z,99660.03
2022-11-06T12:56:47.875Z,99664.04
2022-11-06T12:58:55.734Z,99669.02
2022-11-06T13:04:04.274Z,99672.38
2022-11-06T13:10:22.652Z,99669.09
2022-11-06T13:14:22.375Z,99671.22
2022-11-06T13:17:30.901Z,99667.23
2022-11-06T13:18:33.983Z,99666.8
2022-11-06T13:22:40.627Z,99669.02
2022-11-06T13:23:43.001Z,99668.5
2022-11-06T13:28:49.016Z,99665.64
2022-11-06T13:29:47.085Z,99662.97
2022-11-06T13:30:47.794Z,99666.17
2022-11-06T13:31:49.666Z,99665.38
2022-11-06T13:33:52.200Z,99667.78
2022-11-06T13:34:52.996Z,99660.8
2022-11-06T13:35:50.965Z,99668.54
2022-11-06T13:36:51.270Z,99663.47
2022-11-06T13:37:50.993Z,99668.24
2022-11-06T13:38:53.541Z,99671.8
2022-11-06T13:40:57.095Z,99675.57
2022-11-06T13:41:55.833Z,99674.35
2022-11-06T13:44:00.661Z,99678.91
2022-11-06T13:44:58.075Z,99676.14
2022-11-06T14:06:54.331Z,99675.54
2022-11-06T14:07:52.821Z,99673.62
2022-11-06T14:08:53.950Z,99673.1
2022-11-06T14:09:52.391Z,99671.85
2022-11-06T14:12:58.584Z,99671.52
2022-11-06T14:16:07.605Z,99672.71
2022-11-06T14:18:04.581Z,99679.52
2022-11-06T14:19:12.097Z,99676.59
2022-11-06T14:32:38.964Z,99679.3
2022-11-06T14:34:42.576Z,99686.37
2022-11-06T14:35:51.176Z,99683.08
2022-11-06T14:36:42.865Z,99684.73
2022-11-06T14:37:45.857Z,99685.86
2022-11-06T14:38:42.884Z,99687.85
2022-11-06T14:40:43.932Z,99685.2
2022-11-06T14:41:54.393Z,99681.34
2022-11-06T14:42:47.252Z,99679.9
2022-11-06T14:43:50.520Z,99687.59
2022-11-06T14:44:48.061Z,99684.2
2022-11-06T14:46:55.001Z,99678.94
2022-11-06T14:47:54.771Z,99683.48
2022-11-06T14:48:53.624Z,99681.69
2022-11-06T14:50:54.027Z,99681.39
2022-11-06T14:51:58.426Z,99678.77
2022-11-06T14:53:58.763Z,99681.49
2022-11-06T14:55:04.743Z,99679.58
2022-11-06T14:56:03.266Z,99677.75
2022-11-06T14:57:02.685Z,99677.48
2022-11-06T14:59:04.848Z,99672.04
2022-11-06T15:00:03.351Z,99671.31
2022-11-06T15:01:15.227Z,99674.09
2022-11-06T15:02:20.411Z,99673.19
2022-11-06T15:03:16.657Z,99672.73
2022-11-06T15:04:20.479Z,99674.88
2022-11-06T15:05:15.460Z,99668.16
2022-11-06T15:13:34.227Z,99672.41
2022-11-06T15:15:36.282Z,99671.84
2022-11-06T15:17:37.962Z,99670.5
2022-11-06T15:18:38.793Z,99672.4
2022-11-06T15:19:39.275Z,99673.33
2022-11-06T15:20:38.203Z,99673.62
2022-11-06T15:22:48.638Z,99672.94
2022-11-06T15:26:50.202Z,99673.53
2022-11-06T15:29:04.151Z,99673.17
2022-11-06T15:29:58.292Z,99671.69